Time;durP1;ratioP1;P1;durP2;ratioP2;P2;SDS_P1;SDS_P2;PMS_P1;PMS_P2;Temp;Humidity;BMP_temperature;BMP_pressure;BME280_temperature;BME280_humidity;BME280_pressure;Samples;Min_cycle;Max_cycle;Signal;HPM_P1;HPM_P2
2023/03/06 00:00:38;;;;;;;5.22;1.50;;;1.70;99.90;;;;;;5084563;28;20123;-65
2023/03/06 00:03:04;;;;;;;4.72;1.30;;;1.70;99.90;;;;;;5071043;28;20054;-65
2023/03/06 00:05:30;;;;;;;4.93;1.38;;;1.70;99.90;;;;;;5081142;28;20109;-65
2023/03/06 00:07:55;;;;;;;5.25;1.33;;;1.70;99.90;;;;;;5084449;28;20044;-65
2023/03/06 00:10:23;;;;;;;5.13;1.17;;;1.70;99.90;;;;;;5072046;28;20040;-65
2023/03/06 00:12:54;;;;;;;4.43;1.20;;;1.70;99.90;;;;;;5067643;28;20049;-65
2023/03/06 00:15:20;;;;;;;6.00;1.52;;;1.80;99.90;;;;;;5061271;28;20079;-65
2023/03/06 00:17:47;;;;;;;5.22;1.42;;;1.80;99.90;;;;;;5071951;28;20302;-65
2023/03/06 00:20:13;;;;;;;5.82;1.67;;;1.80;99.90;;;;;;5066890;28;20042;-65
2023/03/06 00:22:39;;;;;;;4.68;1.52;;;1.80;99.90;;;;;;5083163;28;20081;-65
2023/03/06 00:25:07;;;;;;;6.22;1.55;;;1.90;99.90;;;;;;5086926;28;20159;-65
2023/03/06 00:27:33;;;;;;;3.80;1.10;;;1.90;99.90;;;;;;5084421;28;20051;-65
2023/03/06 00:30:00;;;;;;;3.70;1.20;;;1.90;99.90;;;;;;5084164;28;20501;-65
2023/03/06 00:32:26;;;;;;;5.75;1.48;;;1.90;99.90;;;;;;5084419;28;20487;-65
2023/03/06 00:34:54;;;;;;;6.18;1.33;;;1.90;99.90;;;;;;5073143;28;20452;-65
2023/03/06 00:37:21;;;;;;;5.28;1.55;;;1.90;99.90;;;;;;5085783;28;20035;-65
2023/03/06 00:39:48;;;;;;;7.22;1.55;;;1.90;99.90;;;;;;5068283;28;20117;-65
2023/03/06 00:42:15;;;;;;;7.30;1.60;;;1.90;99.90;;;;;;5061879;28;20469;-66
2023/03/06 00:44:40;;;;;;;4.03;1.65;;;2.00;99.90;;;;;;5081745;28;20361;-65
2023/03/06 00:47:06;;;;;;;3.58;1.23;;;1.90;99.90;;;;;;5069854;28;20066;-65
2023/03/06 00:49:32;;;;;;;5.82;1.42;;;2.00;99.90;;;;;;5068599;28;20048;-65
2023/03/06 00:51:58;;;;;;;6.53;1.40;;;2.00;99.90;;;;;;5078065;28;20040;-65
2023/03/06 00:54:24;;;;;;;5.45;1.52;;;2.00;99.90;;;;;;5083257;28;20191;-65
2023/03/06 00:56:50;;;;;;;3.35;1.45;;;2.00;99.90;;;;;;5085564;28;20052;-65
2023/03/06 00:59:15;;;;;;;6.15;1.55;;;2.00;99.90;;;;;;5084407;28;20049;-65
2023/03/06 01:01:42;;;;;;;2.60;1.25;;;2.00;99.90;;;;;;5083206;28;20044;-65
2023/03/06 01:04:08;;;;;;;4.20;1.70;;;2.00;99.90;;;;;;5070292;28;20044;-66
2023/03/06 01:06:35;;;;;;;7.70;1.95;;;2.00;99.90;;;;;;5084428;28;20056;-65
2023/03/06 01:09:01;;;;;;;6.30;1.63;;;2.00;99.90;;;;;;5085491;28;20456;-66
2023/03/06 01:11:26;;;;;;;2.50;1.10;;;2.00;99.90;;;;;;5081327;28;20128;-66
2023/03/06 01:13:52;;;;;;;4.57;1.48;;;2.00;99.90;;;;;;5069290;28;20101;-65
2023/03/06 01:16:20;;;;;;;3.65;1.63;;;2.00;99.90;;;;;;5082823;28;20105;-66
2023/03/06 01:18:46;;;;;;;6.65;1.55;;;2.10;99.90;;;;;;5084981;28;20089;-66
2023/03/06 01:21:12;;;;;;;4.57;1.15;;;2.00;99.90;;;;;;5084821;28;20430;-65
2023/03/06 01:23:38;;;;;;;7.95;1.50;;;2.10;99.90;;;;;;5082820;28;20044;-65
2023/03/06 01:26:05;;;;;;;9.25;1.42;;;2.10;99.90;;;;;;5083401;28;20484;-65
2023/03/06 01:28:32;;;;;;;5.57;1.20;;;2.20;99.90;;;;;;5067376;28;20048;-66
2023/03/06 01:31:00;;;;;;;2.90;1.40;;;2.20;99.90;;;;;;5065115;28;20044;-65
2023/03/06 01:33:26;;;;;;;4.95;1.65;;;2.20;99.90;;;;;;5083569;28;20033;-65
2023/03/06 01:35:52;;;;;;;5.28;1.77;;;2.20;99.90;;;;;;5080809;28;20483;-65
2023/03/06 01:38:18;;;;;;;4.68;1.23;;;2.20;99.90;;;;;;5082921;28;20496;-66
2023/03/06 01:40:44;;;;;;;3.83;1.30;;;2.20;99.90;;;;;;5067220;28;20063;-65
2023/03/06 01:43:23;;;;;;;4.63;1.45;;;2.20;99.90;;;;;;5085977;28;20032;-66
2023/03/06 01:45:48;;;;;;;6.55;1.38;;;2.20;99.90;;;;;;5083910;28;20189;-66
2023/03/06 01:48:15;;;;;;;5.25;1.20;;;2.30;99.90;;;;;;5069629;28;20457;-65
2023/03/06 01:50:41;;;;;;;3.88;1.55;;;2.30;99.90;;;;;;5061789;28;20044;-65
2023/03/06 01:53:07;;;;;;;4.15;1.13;;;2.30;99.90;;;;;;5070697;28;20120;-66
2023/03/06 01:55:35;;;;;;;4.28;1.23;;;2.30;99.90;;;;;;5081409;28;20036;-65
2023/03/06 01:58:06;;;;;;;4.63;1.27;;;2.30;99.90;;;;;;5053500;28;20059;-65
2023/03/06 02:00:33;;;;;;;4.72;1.20;;;2.30;99.90;;;;;;5070988;28;20131;-65
2023/03/06 02:03:20;;;;;;;3.55;1.10;;;2.30;99.90;;;;;;5064274;28;20175;-65
2023/03/06 02:05:46;;;;;;;4.57;0.98;;;2.40;99.90;;;;;;5083574;28;20072;-65
2023/03/06 02:08:16;;;;;;;4.43;1.40;;;2.40;99.90;;;;;;5063834;28;20064;-65
2023/03/06 02:11:08;;;;;;;7.40;1.50;;;2.30;99.90;;;;;;5069639;28;20633;-65
2023/03/06 02:13:35;;;;;;;3.72;1.42;;;2.40;99.90;;;;;;5061914;28;20491;-65
2023/03/06 02:16:01;;;;;;;3.92;1.08;;;2.40;99.90;;;;;;5083564;28;20040;-65
2023/03/06 02:18:29;;;;;;;3.78;1.30;;;2.40;99.90;;;;;;5076241;28;20035;-64
2023/03/06 02:20:59;;;;;;;5.70;0.93;;;2.30;99.90;;;;;;5071013;28;20036;-64
2023/03/06 02:23:53;;;;;;;4.85;1.50;;;2.40;99.90;;;;;;5068732;28;20456;-65
2023/03/06 02:26:20;;;;;;;3.67;1.17;;;2.40;99.90;;;;;;5081721;28;20400;-64
2023/03/06 02:28:46;;;;;;;5.63;1.20;;;2.40;99.90;;;;;;5076916;28;20094;-64
2023/03/06 02:31:22;;;;;;;3.65;1.38;;;2.40;99.90;;;;;;5080842;28;20062;-65
2023/03/06 02:34:12;;;;;;;6.40;1.20;;;2.50;99.90;;;;;;5064633;28;20411;-64
2023/03/06 02:36:43;;;;;;;2.85;1.27;;;2.50;99.90;;;;;;5077581;28;20488;-65
2023/03/06 02:39:10;;;;;;;2.55;1.00;;;2.50;99.90;;;;;;5067601;28;20028;-65
2023/03/06 02:41:35;;;;;;;5.70;1.00;;;2.50;99.90;;;;;;5064650;28;20032;-65
2023/03/06 02:44:01;;;;;;;5.18;1.17;;;2.60;99.90;;;;;;5079330;28;20338;-66
2023/03/06 02:46:27;;;;;;;5.78;1.00;;;2.60;99.90;;;;;;5066097;28;20154;-66
2023/03/06 02:48:53;;;;;;;5.25;0.73;;;2.60;99.90;;;;;;5077887;28;20093;-67
2023/03/06 02:51:18;;;;;;;4.35;1.00;;;2.60;99.90;;;;;;5064172;28;20287;-67
2023/03/06 02:53:44;;;;;;;2.55;0.73;;;2.70;99.90;;;;;;5062422;28;20040;-68
2023/03/06 02:56:10;;;;;;;3.45;0.88;;;2.70;99.90;;;;;;5066790;28;20071;-67
2023/03/06 02:58:36;;;;;;;4.93;1.10;;;2.70;99.90;;;;;;5069466;28;20396;-67
2023/03/06 03:01:02;;;;;;;4.20;1.00;;;2.70;99.90;;;;;;5085932;28;20061;-68
2023/03/06 03:03:27;;;;;;;7.03;1.30;;;2.70;99.90;;;;;;5060515;28;20064;-68
2023/03/06 03:05:53;;;;;;;3.97;0.93;;;2.70;99.90;;;;;;5058553;28;20040;-68
2023/03/06 03:08:19;;;;;;;4.20;1.02;;;2.70;99.90;;;;;;5061252;28;20531;-68
2023/03/06 03:10:44;;;;;;;5.75;1.30;;;2.70;99.90;;;;;;5062263;28;20126;-67
2023/03/06 03:13:10;;;;;;;2.70;0.98;;;2.70;99.90;;;;;;5062492;28;20036;-68
2023/03/06 03:15:36;;;;;;;4.05;1.23;;;2.70;99.90;;;;;;5083493;28;20488;-69
2023/03/06 03:18:02;;;;;;;6.50;1.27;;;2.70;99.90;;;;;;5062713;28;20040;-69
2023/03/06 03:20:27;;;;;;;3.22;1.40;;;2.70;99.90;;;;;;5079860;28;20043;-69
2023/03/06 03:22:54;;;;;;;5.97;1.60;;;2.80;99.90;;;;;;5064809;28;20345;-69
2023/03/06 03:25:21;;;;;;;5.75;1.45;;;2.80;99.90;;;;;;5067701;28;20115;-69
2023/03/06 03:27:47;;;;;;;3.95;1.27;;;2.80;99.90;;;;;;5073775;28;20487;-70
2023/03/06 03:30:13;;;;;;;5.20;1.40;;;2.80;99.90;;;;;;5071285;28;20042;-69
2023/03/06 03:32:39;;;;;;;3.78;1.35;;;2.80;99.90;;;;;;5064670;28;20076;-69
2023/03/06 03:35:08;;;;;;;3.60;1.45;;;2.80;99.90;;;;;;5071429;28;20090;-69
2023/03/06 03:37:34;;;;;;;3.42;1.05;;;2.80;99.90;;;;;;5071023;28;20525;-69
2023/03/06 03:40:00;;;;;;;5.05;1.35;;;2.80;99.90;;;;;;5070029;28;20051;-69
2023/03/06 03:42:25;;;;;;;2.20;0.98;;;2.80;99.90;;;;;;5064111;28;20097;-69
2023/03/06 03:44:51;;;;;;;3.10;1.33;;;2.80;99.90;;;;;;5046344;28;20042;-68
2023/03/06 03:47:17;;;;;;;3.60;1.42;;;2.90;99.90;;;;;;5069496;28;20134;-68
2023/03/06 03:49:42;;;;;;;1.95;0.90;;;2.80;99.90;;;;;;5048961;28;20047;-69
2023/03/06 03:52:08;;;;;;;3.92;1.02;;;2.80;99.90;;;;;;5063439;28;20057;-68
2023/03/06 03:54:34;;;;;;;3.88;0.70;;;2.80;99.90;;;;;;5068105;28;20372;-68
2023/03/06 03:57:00;;;;;;;2.45;0.77;;;2.80;99.90;;;;;;5051182;28;20036;-69
2023/03/06 03:59:26;;;;;;;3.53;0.60;;;2.80;99.90;;;;;;5070215;28;20051;-68
2023/03/06 04:01:51;;;;;;;1.70;0.45;;;2.80;99.90;;;;;;5066873;28;20275;-68
2023/03/06 04:04:17;;;;;;;1.40;0.70;;;2.80;99.90;;;;;;5079265;28;20031;-68
2023/03/06 04:06:43;;;;;;;2.35;0.43;;;2.80;99.90;;;;;;5061351;28;20136;-68
2023/03/06 04:09:09;;;;;;;3.15;0.52;;;2.80;99.90;;;;;;5067847;28;20115;-68
2023/03/06 04:11:34;;;;;;;0.70;0.50;;;2.80;99.90;;;;;;5066397;28;20460;-68
2023/03/06 04:14:00;;;;;;;3.03;0.40;;;2.80;99.90;;;;;;5063488;28;20385;-69
2023/03/06 04:16:26;;;;;;;2.47;0.68;;;2.70;99.90;;;;;;5064600;28;20075;-68
2023/03/06 04:18:52;;;;;;;1.05;0.50;;;2.70;99.90;;;;;;5068535;28;20040;-68
2023/03/06 04:21:17;;;;;;;1.65;0.70;;;2.70;99.90;;;;;;5065421;28;20048;-68
2023/03/06 04:23:43;;;;;;;1.05;0.40;;;2.80;99.90;;;;;;5071877;28;20039;-68
2023/03/06 04:26:09;;;;;;;1.90;0.45;;;2.70;99.90;;;;;;5055214;28;20048;-68
2023/03/06 04:28:35;;;;;;;1.85;0.40;;;2.70;99.90;;;;;;5067096;28;20044;-68
2023/03/06 04:31:00;;;;;;;1.73;0.60;;;2.70;99.90;;;;;;5067277;28;20154;-68
2023/03/06 04:33:26;;;;;;;0.88;0.50;;;2.70;99.90;;;;;;5079685;28;20503;-68
2023/03/06 04:35:52;;;;;;;1.13;0.60;;;2.70;99.90;;;;;;5066395;28;20044;-68
2023/03/06 04:38:17;;;;;;;2.13;0.65;;;2.70;99.90;;;;;;5063319;28;20033;-68
2023/03/06 04:40:43;;;;;;;0.98;0.60;;;2.70;99.90;;;;;;5061403;28;20063;-68
2023/03/06 04:43:09;;;;;;;3.38;0.60;;;2.70;99.90;;;;;;5066696;28;20133;-69
2023/03/06 04:45:35;;;;;;;2.25;0.60;;;2.70;99.90;;;;;;5056378;28;20433;-68
2023/03/06 04:48:01;;;;;;;1.52;0.60;;;2.60;99.90;;;;;;5053689;28;20043;-68
2023/03/06 04:50:31;;;;;;;1.65;0.70;;;2.60;99.90;;;;;;5070220;28;20136;-68
2023/03/06 04:53:00;;;;;;;0.90;0.50;;;2.50;99.90;;;;;;5083962;28;20646;-69
2023/03/06 04:55:27;;;;;;;1.08;0.65;;;2.40;99.90;;;;;;5067844;28;20389;-69
2023/03/06 04:57:53;;;;;;;0.80;0.50;;;2.30;99.90;;;;;;5067043;28;20028;-66
2023/03/06 05:00:22;;;;;;;0.50;0.50;;;2.30;99.90;;;;;;5067655;28;20139;-67
2023/03/06 05:02:48;;;;;;;1.00;0.43;;;2.30;99.90;;;;;;5065523;28;20107;-69
2023/03/06 05:05:15;;;;;;;1.48;0.50;;;2.20;99.90;;;;;;5066451;28;20112;-69
2023/03/06 05:07:41;;;;;;;0.52;0.50;;;2.20;99.90;;;;;;5064345;28;20036;-69
2023/03/06 05:10:10;;;;;;;1.17;0.50;;;2.10;99.90;;;;;;5059605;28;20066;-69
2023/03/06 05:12:36;;;;;;;0.70;0.50;;;2.00;99.90;;;;;;5071187;28;20081;-67
2023/03/06 05:15:03;;;;;;;1.10;0.45;;;2.00;99.90;;;;;;5052444;28;20033;-67
2023/03/06 05:17:29;;;;;;;0.85;0.50;;;2.00;99.90;;;;;;5069182;28;20300;-67
2023/03/06 05:19:55;;;;;;;1.80;0.50;;;1.90;99.90;;;;;;5061894;28;20040;-68
2023/03/06 05:22:21;;;;;;;0.90;0.60;;;1.90;99.90;;;;;;5064318;28;20488;-67
2023/03/06 05:24:46;;;;;;;1.88;0.82;;;1.90;99.90;;;;;;5068669;28;20043;-68
2023/03/06 05:27:12;;;;;;;1.38;0.50;;;1.80;99.90;;;;;;5053697;28;20447;-67
2023/03/06 05:29:38;;;;;;;0.85;0.60;;;1.80;99.90;;;;;;5045440;28;20044;-67
2023/03/06 05:32:04;;;;;;;1.63;0.40;;;1.70;99.90;;;;;;5050430;28;20039;-68
2023/03/06 05:34:29;;;;;;;2.45;0.63;;;1.70;99.90;;;;;;5062084;28;20068;-68
2023/03/06 05:36:55;;;;;;;1.77;0.60;;;1.70;99.90;;;;;;5050080;28;20063;-68
2023/03/06 05:39:21;;;;;;;1.27;0.60;;;1.60;99.90;;;;;;5055084;28;20106;-68
2023/03/06 05:41:46;;;;;;;1.00;0.60;;;1.70;99.90;;;;;;5055142;28;20050;-68
2023/03/06 05:44:12;;;;;;;0.85;0.45;;;1.60;99.90;;;;;;5048277;28;20051;-69
2023/03/06 05:46:38;;;;;;;0.82;0.60;;;1.60;99.90;;;;;;5066755;28;20115;-68
2023/03/06 05:49:04;;;;;;;1.20;0.60;;;1.50;99.90;;;;;;5064216;28;20492;-69
2023/03/06 05:51:29;;;;;;;1.40;0.70;;;1.40;99.90;;;;;;5066463;28;20043;-69
2023/03/06 05:53:55;;;;;;;2.30;1.15;;;1.40;99.90;;;;;;5053829;28;20051;-69
2023/03/06 05:56:21;;;;;;;2.20;1.40;;;1.40;99.90;;;;;;5063817;28;20452;-69
2023/03/06 05:58:47;;;;;;;1.45;0.98;;;1.30;99.90;;;;;;5067675;28;20060;-69
2023/03/06 06:01:16;;;;;;;4.10;1.02;;;1.30;99.90;;;;;;5061918;28;20076;-69
2023/03/06 06:03:42;;;;;;;1.92;1.02;;;1.20;99.90;;;;;;5064017;28;20076;-69
2023/03/06 06:06:10;;;;;;;3.22;1.17;;;1.20;99.90;;;;;;5070879;28;20040;-69
2023/03/06 06:08:36;;;;;;;1.27;0.77;;;1.20;99.90;;;;;;5072798;28;20108;-68
2023/03/06 06:11:09;;;;;;;2.28;0.90;;;1.10;99.90;;;;;;5066737;28;20036;-68
2023/03/06 06:13:37;;;;;;;1.75;1.02;;;1.10;99.90;;;;;;5072361;28;20036;-68
2023/03/06 06:16:08;;;;;;;2.63;1.23;;;1.00;99.90;;;;;;5069171;28;20104;-68
2023/03/06 06:18:33;;;;;;;1.50;1.05;;;1.00;99.90;;;;;;5070300;28;20380;-68
2023/03/06 06:21:04;;;;;;;2.03;1.00;;;1.00;99.90;;;;;;5079228;28;20056;-66
2023/03/06 06:23:30;;;;;;;1.92;1.25;;;1.00;99.90;;;;;;5067965;28;20040;-66
2023/03/06 06:26:02;;;;;;;2.90;1.60;;;1.00;99.90;;;;;;5063921;28;20060;-67
2023/03/06 06:28:29;;;;;;;2.40;1.35;;;0.90;99.90;;;;;;5068583;28;20044;-67
2023/03/06 06:30:55;;;;;;;4.28;1.40;;;0.90;99.90;;;;;;5071654;28;20040;-67
2023/03/06 06:33:21;;;;;;;3.83;1.40;;;0.90;99.90;;;;;;5065089;28;20044;-67
2023/03/06 06:35:46;;;;;;;4.25;1.30;;;0.90;99.90;;;;;;5043736;28;20488;-67
2023/03/06 06:38:12;;;;;;;2.20;1.40;;;0.90;99.90;;;;;;5087422;28;20547;-67
2023/03/06 06:40:38;;;;;;;3.05;1.33;;;0.90;99.90;;;;;;5061954;28;20415;-67
2023/03/06 06:43:03;;;;;;;1.95;1.38;;;1.00;99.90;;;;;;5067510;28;20480;-68
2023/03/06 06:45:29;;;;;;;3.47;1.40;;;1.00;99.90;;;;;;5061645;28;20048;-67
2023/03/06 06:47:55;;;;;;;2.92;1.77;;;1.00;99.90;;;;;;5065840;28;20059;-67
2023/03/06 06:50:21;;;;;;;3.38;1.58;;;1.10;99.90;;;;;;5064523;28;20488;-67
2023/03/06 06:52:46;;;;;;;2.40;1.40;;;1.20;99.90;;;;;;5060727;28;20056;-68
2023/03/06 06:55:12;;;;;;;3.20;1.40;;;1.20;99.90;;;;;;5051825;28;20047;-67
2023/03/06 06:57:39;;;;;;;3.15;1.60;;;1.30;99.90;;;;;;5065825;28;20028;-67
2023/03/06 07:00:06;;;;;;;2.38;1.90;;;1.30;99.90;;;;;;5065103;28;20053;-68
2023/03/06 07:02:32;;;;;;;2.83;1.77;;;1.40;99.90;;;;;;5070525;28;20040;-68
2023/03/06 07:04:58;;;;;;;3.05;1.30;;;1.40;99.90;;;;;;5079468;28;20391;-68
2023/03/06 07:07:23;;;;;;;2.22;1.17;;;1.50;99.90;;;;;;5089887;28;20066;-68
2023/03/06 07:09:49;;;;;;;2.20;1.67;;;1.60;99.90;;;;;;5087951;28;20047;-68
2023/03/06 07:12:15;;;;;;;4.13;1.40;;;1.60;99.90;;;;;;5070522;28;20040;-68
2023/03/06 07:14:41;;;;;;;4.55;1.42;;;1.60;99.90;;;;;;5080574;28;20434;-68
2023/03/06 07:17:08;;;;;;;4.68;1.73;;;1.60;99.90;;;;;;5087715;28;20032;-68
2023/03/06 07:19:34;;;;;;;2.55;1.30;;;1.60;99.90;;;;;;5086825;28;20043;-68
2023/03/06 07:22:00;;;;;;;3.92;1.75;;;1.60;99.90;;;;;;5075925;28;20047;-68
2023/03/06 07:24:26;;;;;;;3.40;1.83;;;1.60;99.90;;;;;;5065544;28;20408;-68
2023/03/06 07:26:52;;;;;;;2.30;2.00;;;1.60;99.90;;;;;;5087900;28;20046;-68
2023/03/06 07:29:18;;;;;;;3.72;1.70;;;1.70;99.90;;;;;;5067056;28;20040;-66
2023/03/06 07:31:44;;;;;;;2.63;1.90;;;1.70;99.90;;;;;;5065926;28;20051;-67
2023/03/06 07:34:14;;;;;;;3.72;1.95;;;1.70;99.90;;;;;;5075210;28;20443;-67
2023/03/06 07:36:40;;;;;;;3.08;1.83;;;1.80;99.90;;;;;;5073571;28;20146;-67
2023/03/06 07:39:09;;;;;;;3.30;1.92;;;1.90;99.90;;;;;;5075686;28;20029;-67
2023/03/06 07:41:35;;;;;;;2.45;1.70;;;2.30;99.90;;;;;;5049738;28;20043;-67
2023/03/06 07:44:01;;;;;;;2.78;1.70;;;3.20;99.90;;;;;;5075271;28;20036;-67
2023/03/06 07:46:27;;;;;;;2.78;1.42;;;4.20;99.90;;;;;;5069372;28;20059;-67
2023/03/06 07:48:53;;;;;;;1.80;1.33;;;5.20;99.90;;;;;;5066408;28;20415;-67
2023/03/06 07:51:20;;;;;;;1.60;1.30;;;5.60;99.90;;;;;;5064042;28;20186;-68
2023/03/06 07:53:49;;;;;;;2.92;1.05;;;5.80;99.90;;;;;;5079013;28;20487;-70
2023/03/06 07:56:14;;;;;;;4.22;1.27;;;6.30;99.90;;;;;;5066548;28;20466;-68
2023/03/06 07:58:42;;;;;;;1.98;1.00;;;6.40;99.90;;;;;;5076311;28;20124;-68
2023/03/06 08:01:12;;;;;;;2.13;0.98;;;6.10;99.90;;;;;;5071548;28;20136;-69
2023/03/06 08:03:38;;;;;;;2.25;1.00;;;5.70;99.90;;;;;;5052824;28;20117;-68
2023/03/06 08:06:17;;;;;;;2.03;1.05;;;5.50;99.90;;;;;;5067335;28;20488;-68
2023/03/06 08:08:44;;;;;;;1.58;1.15;;;5.80;99.90;;;;;;5071281;28;20127;-68
2023/03/06 08:11:12;;;;;;;3.53;1.15;;;6.80;99.90;;;;;;5081147;28;20068;-68
2023/03/06 08:13:38;;;;;;;2.53;0.90;;;7.90;99.90;;;;;;5069268;28;20051;-68
2023/03/06 08:16:05;;;;;;;1.00;0.80;;;8.30;99.90;;;;;;5067915;28;20048;-68
2023/03/06 08:18:31;;;;;;;2.97;0.90;;;8.10;99.90;;;;;;5065151;28;20040;-68
2023/03/06 08:21:22;;;;;;;3.45;1.00;;;8.40;99.90;;;;;;5070923;28;20502;-68
2023/03/06 08:23:48;;;;;;;1.77;0.70;;;9.50;99.90;;;;;;5058263;28;20052;-68
2023/03/06 08:26:19;;;;;;;4.38;0.52;;;10.40;99.90;;;;;;5068607;28;20039;-68
2023/03/06 08:28:45;;;;;;;1.52;0.60;;;11.20;99.90;;;;;;5082105;28;20070;-68
2023/03/06 08:31:23;;;;;;;1.95;0.70;;;11.50;99.90;;;;;;5087610;28;20534;-68
2023/03/06 08:33:49;;;;;;;1.50;0.60;;;10.90;99.90;;;;;;5077534;28;20043;-69
2023/03/06 08:36:15;;;;;;;2.58;0.68;;;10.50;99.90;;;;;;5069022;28;20059;-68
2023/03/06 08:38:41;;;;;;;1.55;0.47;;;10.00;99.90;;;;;;5080707;28;20032;-69
2023/03/06 08:41:06;;;;;;;2.35;1.20;;;9.60;99.90;;;;;;5067466;28;20044;-68
2023/03/06 08:43:34;;;;;;;2.30;0.85;;;9.60;99.90;;;;;;5070399;28;20119;-69
2023/03/06 08:46:00;;;;;;;3.28;0.57;;;10.00;99.90;;;;;;5066394;28;20067;-67
2023/03/06 08:48:27;;;;;;;1.38;0.40;;;10.60;99.90;;;;;;5064237;28;20500;-67
2023/03/06 08:50:53;;;;;;;0.95;0.30;;;10.50;99.90;;;;;;5063216;28;20048;-67
2023/03/06 08:53:19;;;;;;;1.98;0.40;;;10.50;99.90;;;;;;5071078;28;20415;-68
2023/03/06 08:55:45;;;;;;;1.10;0.30;;;10.60;99.90;;;;;;5073626;28;20039;-67
2023/03/06 08:58:11;;;;;;;1.33;0.20;;;10.90;99.90;;;;;;5079161;28;20355;-68
2023/03/06 09:00:37;;;;;;;2.15;0.28;;;11.60;99.90;;;;;;5066724;28;20040;-68
2023/03/06 09:03:03;;;;;;;2.45;0.52;;;12.40;99.90;;;;;;5069720;28;20040;-68
2023/03/06 09:05:29;;;;;;;1.52;0.30;;;12.70;99.90;;;;;;5081471;28;20044;-68
2023/03/06 09:07:55;;;;;;;1.48;0.35;;;12.90;99.90;;;;;;5063710;28;20414;-69
2023/03/06 09:10:23;;;;;;;2.58;0.40;;;13.30;99.90;;;;;;5081967;28;20036;-68
2023/03/06 09:12:49;;;;;;;1.90;0.30;;;13.40;99.90;;;;;;5085459;28;20462;-68
2023/03/06 09:15:15;;;;;;;2.88;0.52;;;13.10;99.90;;;;;;5082065;28;20106;-68
2023/03/06 09:17:41;;;;;;;2.13;0.30;;;12.90;99.90;;;;;;5078229;28;20040;-68
2023/03/06 09:20:09;;;;;;;2.85;0.50;;;12.80;99.90;;;;;;5062389;28;20047;-68
2023/03/06 09:22:35;;;;;;;2.35;0.30;;;13.00;99.90;;;;;;5064751;28;20375;-66
2023/03/06 09:25:01;;;;;;;3.25;0.40;;;13.20;99.90;;;;;;5061461;28;20040;-66
2023/03/06 09:27:27;;;;;;;4.25;0.32;;;13.30;99.90;;;;;;5063460;28;20135;-66
2023/03/06 09:29:54;;;;;;;3.92;0.40;;;12.90;99.90;;;;;;5062115;28;20127;-66
2023/03/06 09:32:20;;;;;;;4.45;0.45;;;12.70;99.90;;;;;;5055314;28;20044;-67
2023/03/06 09:34:46;;;;;;;2.97;0.70;;;12.60;99.90;;;;;;5049816;28;20392;-67
2023/03/06 09:37:11;;;;;;;4.28;0.75;;;12.50;99.90;;;;;;5059363;28;20047;-67
2023/03/06 09:39:37;;;;;;;2.75;0.50;;;12.70;99.90;;;;;;5068369;28;20123;-67
2023/03/06 09:42:07;;;;;;;3.00;0.40;;;13.20;99.90;;;;;;5084228;28;20538;-66
2023/03/06 09:44:37;;;;;;;1.55;0.30;;;13.80;99.90;;;;;;5080358;28;20496;-67
2023/03/06 09:47:14;;;;;;;1.17;0.30;;;14.60;99.90;;;;;;5058420;28;20122;-67
2023/03/06 09:49:59;;;;;;;1.83;0.38;;;14.60;99.90;;;;;;5067371;28;20040;-67
2023/03/06 09:52:30;;;;;;;1.58;0.30;;;14.60;99.00;;;;;;5065103;28;20036;-67
2023/03/06 09:55:13;;;;;;;3.08;0.35;;;14.60;96.50;;;;;;5075461;28;20047;-67
2023/03/06 09:57:51;;;;;;;4.07;0.50;;;14.90;94.30;;;;;;5078896;28;20468;-67
2023/03/06 10:00:42;;;;;;;2.40;0.40;;;15.20;94.50;;;;;;5063465;28;20059;-67
2023/03/06 10:03:28;;;;;;;2.90;0.40;;;15.70;94.60;;;;;;5043521;28;20070;-67
2023/03/06 10:06:28;;;;;;;2.10;0.30;;;16.10;91.30;;;;;;5052078;28;20070;-67
2023/03/06 10:09:12;;;;;;;2.63;0.30;;;16.20;84.00;;;;;;5050183;28;20062;-67
2023/03/06 10:11:58;;;;;;;4.25;0.30;;;15.30;80.10;;;;;;5084367;28;20044;-67
2023/03/06 10:14:37;;;;;;;2.92;0.22;;;14.50;78.80;;;;;;5075175;28;20038;-67
2023/03/06 10:17:03;;;;;;;2.70;0.30;;;14.50;82.40;;;;;;5084431;28;20043;-68
2023/03/06 10:19:34;;;;;;;1.98;0.40;;;14.50;81.70;;;;;;5080701;28;20079;-67
2023/03/06 10:22:12;;;;;;;1.98;0.50;;;14.80;83.00;;;;;;5079749;28;20071;-67
2023/03/06 10:24:56;;;;;;;2.33;0.30;;;15.10;82.20;;;;;;5068114;28;20133;-67
2023/03/06 10:27:45;;;;;;;1.23;0.28;;;14.70;77.90;;;;;;5081778;28;20116;-67
2023/03/06 10:30:14;;;;;;;1.80;0.40;;;13.40;77.00;;;;;;5081285;28;20032;-67
2023/03/06 10:32:51;;;;;;;3.08;0.40;;;12.20;83.30;;;;;;5041069;28;20036;-67
2023/03/06 10:35:29;;;;;;;3.28;0.22;;;11.20;84.60;;;;;;5057779;28;20120;-67
2023/03/06 10:38:18;;;;;;;3.42;0.20;;;10.40;85.50;;;;;;5088912;28;20390;-67
2023/03/06 10:40:59;;;;;;;2.33;0.28;;;9.60;84.60;;;;;;5086356;28;20032;-66
2023/03/06 10:43:26;;;;;;;2.95;0.52;;;9.00;88.70;;;;;;5088372;28;20036;-67
2023/03/06 10:45:52;;;;;;;4.50;0.60;;;8.60;89.80;;;;;;5081170;28;20090;-65
2023/03/06 10:48:22;;;;;;;1.80;0.43;;;9.20;91.00;;;;;;5086981;28;20036;-66
2023/03/06 10:50:48;;;;;;;1.33;0.22;;;10.40;91.20;;;;;;5080285;28;20050;-66
2023/03/06 10:53:20;;;;;;;1.65;0.20;;;11.70;91.10;;;;;;5074391;28;20038;-66
2023/03/06 10:55:57;;;;;;;3.17;0.30;;;12.10;86.70;;;;;;5072758;28;20073;-66
2023/03/06 10:58:29;;;;;;;1.90;0.40;;;11.40;84.90;;;;;;5054751;28;20040;-66
2023/03/06 11:01:12;;;;;;;1.92;0.28;;;11.10;88.30;;;;;;5068996;28;20040;-67
2023/03/06 11:03:38;;;;;;;1.52;0.30;;;11.90;89.90;;;;;;5084529;28;20063;-67
2023/03/06 11:06:07;;;;;;;1.88;0.28;;;12.70;88.50;;;;;;5083184;28;20117;-67
2023/03/06 11:08:34;;;;;;;1.38;0.30;;;13.50;86.00;;;;;;5082683;28;20051;-67
2023/03/06 11:11:03;;;;;;;2.05;0.32;;;14.00;86.50;;;;;;5065256;28;20043;-67
2023/03/06 11:13:36;;;;;;;2.35;0.30;;;14.30;86.10;;;;;;5069118;28;20064;-67
2023/03/06 11:16:05;;;;;;;1.55;0.25;;;13.80;81.80;;;;;;5068016;28;20044;-66
2023/03/06 11:18:38;;;;;;;3.53;0.35;;;12.60;81.80;;;;;;5065706;28;20122;-67
2023/03/06 11:21:23;;;;;;;1.60;0.20;;;12.10;85.60;;;;;;5082900;28;20115;-67
2023/03/06 11:23:50;;;;;;;2.95;0.40;;;11.70;86.90;;;;;;5086791;28;20067;-67
2023/03/06 11:26:15;;;;;;;2.15;0.32;;;11.20;85.70;;;;;;5082582;28;20043;-66
2023/03/06 11:28:48;;;;;;;3.53;0.30;;;10.70;86.60;;;;;;5066530;28;20041;-67
2023/03/06 11:31:25;;;;;;;1.77;0.20;;;10.20;87.00;;;;;;5074442;28;20484;-67
2023/03/06 11:34:03;;;;;;;1.60;0.20;;;9.80;88.00;;;;;;5072407;28;20036;-66
2023/03/06 11:36:48;;;;;;;1.40;0.30;;;9.30;89.40;;;;;;5070025;28;20071;-66
2023/03/06 11:40:06;;;;;;;1.50;0.30;;;9.40;90.20;;;;;;5081165;28;20048;-66
2023/03/06 11:42:39;;;;;;;1.05;0.28;;;9.90;90.50;;;;;;5057090;28;20047;-67
2023/03/06 11:45:36;;;;;;;0.95;0.13;;;10.90;89.60;;;;;;5084273;28;20473;-67
2023/03/06 11:48:38;;;;;;;1.00;0.30;;;11.20;83.60;;;;;;5066358;28;20197;-67
2023/03/06 11:51:17;;;;;;;1.25;0.30;;;11.30;85.40;;;;;;5078022;28;20052;-66
2023/03/06 11:53:43;;;;;;;2.08;0.20;;;11.10;86.00;;;;;;5065187;28;20063;-67
2023/03/06 11:56:18;;;;;;;1.50;0.20;;;10.40;86.80;;;;;;5085356;28;20130;-66
2023/03/06 11:59:06;;;;;;;1.77;0.20;;;9.80;88.00;;;;;;5071038;28;20050;-66
2023/03/06 12:01:56;;;;;;;2.25;0.30;;;9.30;89.80;;;;;;5088361;28;20044;-66
2023/03/06 12:04:54;;;;;;;3.05;0.38;;;8.80;90.80;;;;;;5065320;28;20046;-66
2023/03/06 12:07:25;;;;;;;2.90;0.30;;;8.40;91.60;;;;;;5069606;28;20063;-66
2023/03/06 12:10:05;;;;;;;2.47;0.40;;;8.00;91.70;;;;;;5070650;28;20083;-66
2023/03/06 12:13:15;;;;;;;1.88;0.40;;;7.90;92.10;;;;;;5070625;28;20441;-66
2023/03/06 12:15:56;;;;;;;3.38;0.70;;;7.70;92.40;;;;;;5084102;28;20056;-66
2023/03/06 12:18:38;;;;;;;2.92;0.40;;;7.60;92.50;;;;;;5068013;28;20127;-66
2023/03/06 12:21:17;;;;;;;1.75;0.50;;;7.60;92.30;;;;;;5082256;28;20032;-66
2023/03/06 12:23:58;;;;;;;2.90;0.35;;;7.70;92.40;;;;;;5063631;28;20050;-66
2023/03/06 12:26:55;;;;;;;4.68;0.43;;;8.80;92.60;;;;;;5086440;28;20050;-66
2023/03/06 12:29:44;;;;;;;5.05;0.60;;;10.40;91.40;;;;;;5077076;28;20186;-67
2023/03/06 12:32:29;;;;;;;2.03;0.38;;;11.90;90.70;;;;;;5063711;28;20078;-67
2023/03/06 12:35:21;;;;;;;2.47;0.50;;;12.90;86.50;;;;;;5069145;28;20076;-67
2023/03/06 12:38:01;;;;;;;2.10;0.63;;;12.30;83.00;;;;;;5078086;28;20087;-66
2023/03/06 12:40:49;;;;;;;4.22;0.60;;;11.50;85.70;;;;;;5066150;28;20050;-66
2023/03/06 12:43:21;;;;;;;2.80;0.50;;;11.80;87.20;;;;;;5079623;28;20035;-66
2023/03/06 12:45:48;;;;;;;1.67;0.68;;;12.60;87.00;;;;;;5057541;28;20044;-66
2023/03/06 12:48:24;;;;;;;4.18;0.90;;;12.70;85.00;;;;;;5079658;28;20118;-67
2023/03/06 12:50:51;;;;;;;4.20;0.80;;;12.00;82.90;;;;;;5066906;28;20051;-67
2023/03/06 12:53:31;;;;;;;3.63;0.80;;;11.30;85.20;;;;;;5062868;28;20058;-67
2023/03/06 12:55:59;;;;;;;3.85;0.95;;;10.60;83.90;;;;;;5083105;28;20044;-67
2023/03/06 12:58:30;;;;;;;2.70;1.08;;;10.10;85.80;;;;;;5084637;28;20063;-67
2023/03/06 13:01:25;;;;;;;3.08;0.80;;;9.60;86.50;;;;;;5062702;28;20112;-67
2023/03/06 13:04:27;;;;;;;2.83;0.77;;;9.40;87.70;;;;;;5054921;28;20446;-67
2023/03/06 13:07:14;;;;;;;2.28;0.80;;;9.10;88.10;;;;;;5054693;28;20072;-68
2023/03/06 13:09:52;;;;;;;2.08;0.60;;;9.30;90.20;;;;;;5082835;28;20031;-67